• Join FlightAware (Why Join?)
  • Login
  • US Flag 
02:10AM EDT


 

Airport Tracker/Info


-or-


 

Live Flight TrackerFlight Track Log ✈ AAL533 ✈ 07-May-2012 ✈ KBNA - KDFW

Flight Track Log - Related Links

Times and Time Zones

All times are in EDT time to prevent confusion due to time zone crossing. See the AAL533 flight status page for this flight to view local times or setup timezone preferences in your user account.

Time Position Orientation Groundspeed Altitude Reporting Facility
EDT Latitude Longitude Course Direction KTS MPH feet Rate Location/Type
08:49PM 36.1254 -86.7439 117° Southeast  Level FlightAware Approximate
08:50PM 36.1000 -86.6833 270° West 158 182 1,200  Level Nashville TRACON
08:55PM 36.1014 -87.1894 270° West 331 381 14,200 2,400 Climbing Memphis Center
08:56PM 36.1006 -87.3206 275° West 370 426 16,900 2,700 Climbing Memphis Center
08:57PM 36.1097 -87.4486 271° West 384 442 19,600 2,340 Climbing Memphis Center
08:58PM 36.1108 -87.5875 276° West 384 442 21,600 2,040 Climbing Memphis Center
08:59PM 36.1222 -87.7206 284° West 389 448 23,700 1,860 Climbing Memphis Center
09:00PM 36.1500 -87.8586 284° West 407 468 25,400 1,680 Climbing Memphis Center
09:01PM 36.1756 -87.9839 273° West 419 482 27,100 1,440 Climbing Memphis Center
09:02PM 36.1822 -88.1275 269° West 419 482 28,300 1,200 Climbing Memphis Center
09:03PM 36.1806 -88.2664 268° West 419 482 29,600 1,200 Climbing Memphis Center
09:04PM 36.1767 -88.4131 269° West 426 490 30,800 1,140 Climbing Memphis Center
09:05PM 36.1747 -88.5622 269° West 433 498 31,900 600 Climbing Memphis Center
09:06PM 36.1725 -88.7114 268° West 433 498 32,000  Climbing Memphis Center
09:07PM 36.1683 -88.8556 268° West 433 498 32,000  Level Memphis Center
09:08PM 36.1636 -89.0047 268° West 433 498 32,000  Level Memphis Center
09:09PM 36.1589 -89.1514 267° West 438 504 32,000  Level Memphis Center
09:10PM 36.1519 -89.3006 270° West 438 504 32,000  Level Memphis Center
09:11PM 36.1511 -89.4650 269° West 438 504 32,000  Level Memphis Center
09:12PM 36.1481 -89.6089 268° West 438 504 32,000  Level Memphis Center
09:13PM 36.1447 -89.7581 270° West 433 498 32,000  Level Memphis Center
09:14PM 36.1453 -89.9019 266° West 433 498 32,000  Level Memphis Center
09:15PM 36.1372 -90.0433 268° West 428 493 32,000  Level Memphis Center
09:16PM 36.1333 -90.1900 268° West 422 486 32,000  Level Memphis Center
09:17PM 36.1294 -90.3314 266° West 422 486 32,000  Level Memphis Center
09:18PM 36.1231 -90.4444 268° West 422 486 32,000  Level Memphis Center
09:19PM 36.1189 -90.6114 269° West 417 480 32,000  Level Memphis Center
09:20PM 36.1164 -90.7553 266° West 422 486 32,000  Level Memphis Center
09:21PM 36.1075 -90.8964 261° West 422 486 32,000  Level Memphis Center
09:22PM 36.0900 -91.0375 256° West 422 486 32,000  Level Memphis Center
09:23PM 36.0622 -91.1708 255° West 417 480 32,000  Level Memphis Center
09:24PM 36.0342 -91.3042 257° West 406 467 32,000  Level Memphis Center
09:25PM 36.0103 -91.4347 254° West 401 461 32,000  Level Memphis Center
09:26PM 35.9797 -91.5625 255° West 395 455 32,000  Level Memphis Center
09:27PM 35.9514 -91.6931 259° West 395 455 32,000  Level Memphis Center
09:28PM 35.9333 -91.8106 256° West 395 455 32,000  Level Memphis Center
09:29PM 35.9067 -91.9433 255° West 395 455 32,000  Level Memphis Center
09:30PM 35.8781 -92.0708 259° West 395 455 32,000  Level Memphis Center
09:31PM 35.8572 -92.2061 283° West 395 455 32,000  Level Memphis Center
09:32PM 35.8822 -92.3425 292° West 395 455 32,000  Level Memphis Center
09:33PM 35.9239 -92.4717 291° West 395 455 32,000  Level Memphis Center
09:34PM 35.9633 -92.5983 289° West 395 455 32,000  Level Memphis Center
09:35PM 35.9986 -92.7225 290° West 396 456 32,000  Level Memphis Center
09:36PM 36.0358 -92.8519 291° West 396 456 32,000  Level Memphis Center
09:37PM 36.0728 -92.9736 291° West 391 450 32,000  Level Memphis Center
09:38PM 36.1100 -93.0931 288° West 380 437 32,000  Level Memphis Center
09:39PM 36.1425 -93.2175 291° West 380 437 32,000  Level Memphis Center
09:40PM 36.1794 -93.3372 289° West 380 437 32,000  Level Memphis Center
09:41PM 36.2139 -93.4619 269° West 380 437 32,000  Level Memphis Center
09:42PM 36.2128 -93.5878 252° West 380 437 32,000  Level Memphis Center
09:45PM 36.1175 -93.9411 234° Southwest 363 418 32,000 -180 Level Memphis Center
09:46PM 36.0561 -94.0464 225° Southwest 368 423 31,500 -540 Descending Memphis Center
09:47PM 35.9803 -94.1406 206° Southwest 383 441 31,000 -420 Descending Memphis Center
09:50PM 35.6936 -94.3089 205° Southwest 383 441 30,000 -300 Descending Memphis Center
09:51PM 35.5981 -94.3631 204° Southwest 378 435 30,000  Level Memphis Center
09:52PM 35.4942 -94.4192 204° Southwest 398 458 30,000  Level Memphis Center
09:54PM 35.2836 -94.5322 206° Southwest 411 473 30,000  Level Fort Worth Center
09:55PM 35.1786 -94.5942 203° Southwest 416 479 30,000  Level Fort Worth Center
09:56PM 35.0714 -94.6511 212° Southwest 416 479 30,000  Level Fort Worth Center
09:57PM 34.9769 -94.7225 222° Southwest 409 471 30,000  Level Fort Worth Center
09:58PM 34.8914 -94.8164 221° Southwest 409 471 30,000  Level Fort Worth Center
09:59PM 34.8075 -94.9050 222° Southwest 409 471 30,000  Level Fort Worth Center
10:00PM 34.7178 -95.0036 220° Southwest 422 486 30,000 -240 Level Fort Worth Center
10:01PM 34.6339 -95.0892 222° Southwest 422 486 29,600 -600 Descending Fort Worth Center
10:02PM 34.5478 -95.1822 221° Southwest 417 480 28,800 -840 Descending Fort Worth Center
10:03PM 34.4619 -95.2725 221° Southwest 422 486 28,000 -840 Descending Fort Worth Center
10:04PM 34.3736 -95.3653 221° Southwest 422 486 27,200 -840 Descending Fort Worth Center
10:05PM 34.2875 -95.4553 222° Southwest 422 486 26,400 -840 Descending Fort Worth Center
10:06PM 34.2033 -95.5453 220° Southwest 422 486 25,600 -720 Descending Fort Worth Center
10:07PM 34.1150 -95.6350 223° Southwest 427 491 25,000 -600 Descending Fort Worth Center
10:08PM 34.0286 -95.7319 220° Southwest 410 472 24,500 2,460 Descending Fort Worth Center
10:09PM 33.9442 -95.8186 216° Southwest 405 466 30,000 -420 Climbing Fort Worth Center
10:10PM 33.8617 -95.8903 224° Southwest 411 473 23,700 -4,140 Descending Fort Worth Center
10:11PM 33.7894 -95.9739 221° Southwest 405 466 21,800 -2,460 Descending Fort Worth Center
10:12PM 33.6883 -96.0803 221° Southwest 400 460 18,800 -2,700 Descending Fort Worth Center
10:13PM 33.6161 -96.1564 227° Southwest 395 455 16,400 -2,760 Descending Fort Worth Center
10:14PM 33.5697 -96.2169 220° Southwest 387 445 14,600 -2,820 Descending FAA TRACON SMA TRACON (SMA)
10:14PM 33.5203 -96.2672 224° Southwest 379 436 13,000 -2,280 Descending FAA TRACON SMA TRACON (SMA)
10:15PM 33.4697 -96.3264 224° Southwest 364 419 11,600 -1,620 Descending FAA TRACON SMA TRACON (SMA)
10:16PM 33.4225 -96.3811 225° Southwest 337 388 10,900 -540 Descending FAA TRACON SMA TRACON (SMA)
10:16PM 33.3867 -96.4247 224° Southwest 295 339 10,900  Level FAA TRACON SMA TRACON (SMA)
10:17PM 33.3472 -96.4708 225° Southwest 286 329 10,900  Level FAA TRACON SMA TRACON (SMA)
10:18PM 33.3081 -96.5178 224° Southwest 288 331 10,900  Level FAA TRACON SMA TRACON (SMA)
10:18PM 33.2725 -96.5586 224° Southwest 287 330 10,900  Level FAA TRACON SMA TRACON (SMA)
10:19PM 33.2325 -96.6047 224° Southwest 287 330 10,900  Level FAA TRACON SMA TRACON (SMA)
10:20PM 33.1928 -96.6508 224° Southwest 287 330 10,900  Level FAA TRACON SMA TRACON (SMA)
10:20PM 33.1569 -96.6919 223° Southwest 290 334 10,900  Level FAA TRACON SMA TRACON (SMA)
10:21PM 33.1156 -96.7375 223° Southwest 290 334 10,900  Level FAA TRACON SMA TRACON (SMA)
10:22PM 33.0747 -96.7825 224° Southwest 288 331 10,900  Level FAA TRACON SMA TRACON (SMA)
10:22PM 33.0389 -96.8239 228° Southwest 288 331 10,900  Level FAA TRACON SMA TRACON (SMA)
10:23PM 33.0028 -96.8711 212° Southwest 278 320 10,900 -240 Level FAA TRACON SMA TRACON (SMA)
10:24PM 32.9644 -96.9000 181° South 268 308 10,600 -1,020 Descending FAA TRACON SMA TRACON (SMA)
10:24PM 32.9125 -96.9011 181° South 267 307 9,600 -1,800 Descending FAA TRACON SMA TRACON (SMA)
10:25PM 32.8667 -96.9025 183° South 249 287 8,200 -2,280 Descending FAA TRACON SMA TRACON (SMA)
10:26PM 32.8242 -96.9053 181° South 235 270 6,600 -2,520 Descending FAA TRACON SMA TRACON (SMA)
10:26PM 32.7800 -96.9064 213° Southwest 234 269 4,900 -2,040 Descending FAA TRACON SMA TRACON (SMA)
10:27PM 32.7469 -96.9319 270° West 205 236 3,900 -1,440 Descending FAA TRACON SMA TRACON (SMA)
10:28PM 32.7469 -96.9644 315° West 188 216 3,000 -1,200 Descending FAA TRACON SMA TRACON (SMA)
10:29PM 32.7683 -96.9903 322° Northwest 154 177 2,300 -900 Descending FAA TRACON SMA TRACON (SMA)
10:29PM 32.7900 -97.0106 322° Northwest 166 191 1,800 -780 Descending FAA TRACON SMA TRACON (SMA)